sensor_id;sensor_type;location;lat;lon;timestamp;P1;durP1;ratioP1;P2;durP2;ratioP2
11016;SDS011;54687;50.800;6.772;2022-07-05T00:00:14;3.88;;;2.83;;
11016;SDS011;54687;50.800;6.772;2022-07-05T00:02:41;4.97;;;2.78;;
11016;SDS011;54687;50.800;6.772;2022-07-05T00:05:07;2.70;;;2.50;;
11016;SDS011;54687;50.800;6.772;2022-07-05T00:07:34;3.88;;;2.67;;
11016;SDS011;54687;50.800;6.772;2022-07-05T00:10:02;3.50;;;3.20;;
11016;SDS011;54687;50.800;6.772;2022-07-05T00:12:30;4.65;;;4.07;;
11016;SDS011;54687;50.800;6.772;2022-07-05T00:14:57;3.83;;;3.35;;
11016;SDS011;54687;50.800;6.772;2022-07-05T00:17:24;5.05;;;3.58;;
11016;SDS011;54687;50.800;6.772;2022-07-05T00:19:50;3.20;;;2.85;;
11016;SDS011;54687;50.800;6.772;2022-07-05T00:22:17;4.20;;;3.60;;
11016;SDS011;54687;50.800;6.772;2022-07-05T00:24:43;3.40;;;3.10;;
11016;SDS011;54687;50.800;6.772;2022-07-05T00:27:11;6.40;;;2.88;;
11016;SDS011;54687;50.800;6.772;2022-07-05T00:29:37;3.50;;;3.20;;
11016;SDS011;54687;50.800;6.772;2022-07-05T00:32:04;3.53;;;3.10;;
11016;SDS011;54687;50.800;6.772;2022-07-05T00:34:30;5.22;;;3.03;;
11016;SDS011;54687;50.800;6.772;2022-07-05T00:36:57;4.32;;;3.45;;
11016;SDS011;54687;50.800;6.772;2022-07-05T00:39:23;4.15;;;3.47;;
11016;SDS011;54687;50.800;6.772;2022-07-05T00:41:51;4.70;;;3.47;;
11016;SDS011;54687;50.800;6.772;2022-07-05T00:44:27;3.92;;;3.55;;
11016;SDS011;54687;50.800;6.772;2022-07-05T00:46:54;5.88;;;3.33;;
11016;SDS011;54687;50.800;6.772;2022-07-05T00:49:20;4.25;;;3.60;;
11016;SDS011;54687;50.800;6.772;2022-07-05T00:51:46;3.53;;;3.20;;
11016;SDS011;54687;50.800;6.772;2022-07-05T00:54:13;3.50;;;2.97;;
11016;SDS011;54687;50.800;6.772;2022-07-05T00:56:39;3.85;;;3.45;;
11016;SDS011;54687;50.800;6.772;2022-07-05T00:59:06;3.85;;;3.45;;
11016;SDS011;54687;50.800;6.772;2022-07-05T01:01:33;4.07;;;3.38;;
11016;SDS011;54687;50.800;6.772;2022-07-05T01:04:00;3.83;;;3.42;;
11016;SDS011;54687;50.800;6.772;2022-07-05T01:06:26;4.22;;;3.75;;
11016;SDS011;54687;50.800;6.772;2022-07-05T01:08:53;3.90;;;3.60;;
11016;SDS011;54687;50.800;6.772;2022-07-05T01:11:19;4.30;;;2.97;;
11016;SDS011;54687;50.800;6.772;2022-07-05T01:13:46;5.57;;;3.53;;
11016;SDS011;54687;50.800;6.772;2022-07-05T01:16:12;4.13;;;3.72;;
11016;SDS011;54687;50.800;6.772;2022-07-05T01:18:40;3.60;;;3.28;;
11016;SDS011;54687;50.800;6.772;2022-07-05T01:21:07;4.10;;;3.70;;
11016;SDS011;54687;50.800;6.772;2022-07-05T01:23:35;4.80;;;3.95;;
11016;SDS011;54687;50.800;6.772;2022-07-05T01:26:01;4.05;;;3.70;;
11016;SDS011;54687;50.800;6.772;2022-07-05T01:28:28;4.13;;;3.75;;
11016;SDS011;54687;50.800;6.772;2022-07-05T01:30:55;4.00;;;3.63;;
11016;SDS011;54687;50.800;6.772;2022-07-05T01:33:26;4.47;;;4.07;;
11016;SDS011;54687;50.800;6.772;2022-07-05T01:35:52;5.03;;;3.53;;
11016;SDS011;54687;50.800;6.772;2022-07-05T01:38:19;4.93;;;3.83;;
11016;SDS011;54687;50.800;6.772;2022-07-05T01:40:47;5.30;;;3.47;;
11016;SDS011;54687;50.800;6.772;2022-07-05T01:43:16;4.05;;;3.30;;
11016;SDS011;54687;50.800;6.772;2022-07-05T01:45:43;4.00;;;3.70;;
11016;SDS011;54687;50.800;6.772;2022-07-05T01:48:10;5.70;;;4.10;;
11016;SDS011;54687;50.800;6.772;2022-07-05T01:50:38;4.80;;;3.30;;
11016;SDS011;54687;50.800;6.772;2022-07-05T01:53:05;3.75;;;3.45;;
11016;SDS011;54687;50.800;6.772;2022-07-05T01:55:35;4.03;;;3.63;;
11016;SDS011;54687;50.800;6.772;2022-07-05T01:58:02;3.53;;;3.22;;
11016;SDS011;54687;50.800;6.772;2022-07-05T02:00:29;7.07;;;4.10;;
11016;SDS011;54687;50.800;6.772;2022-07-05T02:02:55;5.40;;;3.85;;
11016;SDS011;54687;50.800;6.772;2022-07-05T02:05:22;4.05;;;3.58;;
11016;SDS011;54687;50.800;6.772;2022-07-05T02:07:49;6.55;;;4.05;;
11016;SDS011;54687;50.800;6.772;2022-07-05T02:10:15;5.80;;;4.97;;
11016;SDS011;54687;50.800;6.772;2022-07-05T02:12:42;7.00;;;4.57;;
11016;SDS011;54687;50.800;6.772;2022-07-05T02:15:10;8.32;;;4.47;;
11016;SDS011;54687;50.800;6.772;2022-07-05T02:17:36;5.68;;;5.13;;
11016;SDS011;54687;50.800;6.772;2022-07-05T02:20:03;5.90;;;5.30;;
11016;SDS011;54687;50.800;6.772;2022-07-05T02:22:31;5.75;;;5.15;;
11016;SDS011;54687;50.800;6.772;2022-07-05T02:24:58;6.03;;;5.45;;
11016;SDS011;54687;50.800;6.772;2022-07-05T02:27:24;6.05;;;5.47;;
11016;SDS011;54687;50.800;6.772;2022-07-05T02:29:51;6.80;;;6.10;;
11016;SDS011;54687;50.800;6.772;2022-07-05T02:32:19;7.18;;;5.65;;
11016;SDS011;54687;50.800;6.772;2022-07-05T02:34:46;5.30;;;4.90;;
11016;SDS011;54687;50.800;6.772;2022-07-05T02:37:12;5.07;;;4.68;;
11016;SDS011;54687;50.800;6.772;2022-07-05T02:39:38;6.18;;;5.43;;
11016;SDS011;54687;50.800;6.772;2022-07-05T02:42:05;6.30;;;5.45;;
11016;SDS011;54687;50.800;6.772;2022-07-05T02:44:31;6.18;;;5.20;;
11016;SDS011;54687;50.800;6.772;2022-07-05T02:46:58;5.90;;;5.30;;
11016;SDS011;54687;50.800;6.772;2022-07-05T02:49:25;5.50;;;5.00;;
11016;SDS011;54687;50.800;6.772;2022-07-05T02:51:52;6.30;;;5.10;;
11016;SDS011;54687;50.800;6.772;2022-07-05T02:54:18;5.88;;;5.15;;
11016;SDS011;54687;50.800;6.772;2022-07-05T02:56:45;6.18;;;4.93;;
11016;SDS011;54687;50.800;6.772;2022-07-05T02:59:11;7.95;;;5.53;;
11016;SDS011;54687;50.800;6.772;2022-07-05T03:01:37;5.40;;;4.93;;
11016;SDS011;54687;50.800;6.772;2022-07-05T03:04:04;7.60;;;5.38;;
11016;SDS011;54687;50.800;6.772;2022-07-05T03:06:32;10.07;;;5.20;;
11016;SDS011;54687;50.800;6.772;2022-07-05T03:08:59;5.60;;;5.10;;
11016;SDS011;54687;50.800;6.772;2022-07-05T03:11:25;11.05;;;5.20;;
11016;SDS011;54687;50.800;6.772;2022-07-05T03:13:51;7.47;;;5.95;;
11016;SDS011;54687;50.800;6.772;2022-07-05T03:16:18;5.70;;;5.13;;
11016;SDS011;54687;50.800;6.772;2022-07-05T03:18:44;9.05;;;6.00;;
11016;SDS011;54687;50.800;6.772;2022-07-05T03:21:11;6.28;;;5.65;;
11016;SDS011;54687;50.800;6.772;2022-07-05T03:23:39;6.03;;;5.32;;
11016;SDS011;54687;50.800;6.772;2022-07-05T03:26:05;5.40;;;4.90;;
11016;SDS011;54687;50.800;6.772;2022-07-05T03:28:32;6.18;;;4.88;;
11016;SDS011;54687;50.800;6.772;2022-07-05T03:30:58;5.63;;;5.07;;
11016;SDS011;54687;50.800;6.772;2022-07-05T03:33:25;6.93;;;4.40;;
11016;SDS011;54687;50.800;6.772;2022-07-05T03:35:51;5.55;;;5.05;;
11016;SDS011;54687;50.800;6.772;2022-07-05T03:38:18;8.02;;;5.18;;
11016;SDS011;54687;50.800;6.772;2022-07-05T03:40:45;7.18;;;5.30;;
11016;SDS011;54687;50.800;6.772;2022-07-05T03:43:12;7.38;;;5.03;;
11016;SDS011;54687;50.800;6.772;2022-07-05T03:45:38;6.15;;;4.70;;
11016;SDS011;54687;50.800;6.772;2022-07-05T03:48:05;5.82;;;4.97;;
11016;SDS011;54687;50.800;6.772;2022-07-05T03:50:31;6.72;;;5.43;;
11016;SDS011;54687;50.800;6.772;2022-07-05T03:52:58;6.00;;;5.15;;
11016;SDS011;54687;50.800;6.772;2022-07-05T03:55:24;5.20;;;4.70;;
11016;SDS011;54687;50.800;6.772;2022-07-05T03:57:52;8.00;;;5.13;;
11016;SDS011;54687;50.800;6.772;2022-07-05T04:00:18;6.20;;;4.97;;
11016;SDS011;54687;50.800;6.772;2022-07-05T04:02:45;6.45;;;5.47;;
11016;SDS011;54687;50.800;6.772;2022-07-05T04:05:11;6.07;;;4.82;;
11016;SDS011;54687;50.800;6.772;2022-07-05T04:07:46;5.65;;;4.90;;
11016;SDS011;54687;50.800;6.772;2022-07-05T04:10:12;6.88;;;4.80;;
11016;SDS011;54687;50.800;6.772;2022-07-05T04:12:39;7.82;;;4.88;;
11016;SDS011;54687;50.800;6.772;2022-07-05T04:15:07;5.93;;;4.60;;
11016;SDS011;54687;50.800;6.772;2022-07-05T04:17:34;5.30;;;4.80;;
11016;SDS011;54687;50.800;6.772;2022-07-05T04:20:04;8.35;;;5.40;;
11016;SDS011;54687;50.800;6.772;2022-07-05T04:22:31;6.68;;;4.80;;
11016;SDS011;54687;50.800;6.772;2022-07-05T04:24:57;6.28;;;4.60;;
11016;SDS011;54687;50.800;6.772;2022-07-05T04:27:41;7.90;;;4.80;;
11016;SDS011;54687;50.800;6.772;2022-07-05T04:30:10;6.07;;;4.80;;
11016;SDS011;54687;50.800;6.772;2022-07-05T04:32:36;9.13;;;5.38;;
11016;SDS011;54687;50.800;6.772;2022-07-05T04:35:03;6.07;;;4.38;;
11016;SDS011;54687;50.800;6.772;2022-07-05T04:37:30;6.95;;;4.10;;
11016;SDS011;54687;50.800;6.772;2022-07-05T04:39:56;4.63;;;4.22;;
11016;SDS011;54687;50.800;6.772;2022-07-05T04:42:22;6.53;;;4.38;;
11016;SDS011;54687;50.800;6.772;2022-07-05T04:44:49;4.63;;;4.22;;
11016;SDS011;54687;50.800;6.772;2022-07-05T04:47:17;6.55;;;4.68;;
11016;SDS011;54687;50.800;6.772;2022-07-05T04:49:43;5.88;;;4.68;;
11016;SDS011;54687;50.800;6.772;2022-07-05T04:52:09;5.63;;;4.43;;
11016;SDS011;54687;50.800;6.772;2022-07-05T04:54:37;5.65;;;4.50;;
11016;SDS011;54687;50.800;6.772;2022-07-05T04:57:03;7.75;;;4.22;;
11016;SDS011;54687;50.800;6.772;2022-07-05T04:59:30;6.20;;;4.40;;
11016;SDS011;54687;50.800;6.772;2022-07-05T05:01:56;6.97;;;4.25;;
11016;SDS011;54687;50.800;6.772;2022-07-05T05:04:24;7.50;;;4.32;;
11016;SDS011;54687;50.800;6.772;2022-07-05T05:06:51;6.65;;;4.28;;
11016;SDS011;54687;50.800;6.772;2022-07-05T05:09:17;4.45;;;4.03;;
11016;SDS011;54687;50.800;6.772;2022-07-05T05:11:44;6.22;;;5.25;;
11016;SDS011;54687;50.800;6.772;2022-07-05T05:14:10;6.20;;;4.95;;
11016;SDS011;54687;50.800;6.772;2022-07-05T05:16:36;8.65;;;5.35;;
11016;SDS011;54687;50.800;6.772;2022-07-05T05:19:03;9.63;;;5.03;;
11016;SDS011;54687;50.800;6.772;2022-07-05T05:21:31;5.38;;;4.32;;
11016;SDS011;54687;50.800;6.772;2022-07-05T05:23:57;5.05;;;4.55;;
11016;SDS011;54687;50.800;6.772;2022-07-05T05:26:24;8.52;;;4.47;;
11016;SDS011;54687;50.800;6.772;2022-07-05T05:28:50;6.97;;;4.05;;
11016;SDS011;54687;50.800;6.772;2022-07-05T05:31:17;7.22;;;4.68;;
11016;SDS011;54687;50.800;6.772;2022-07-05T05:33:44;6.65;;;4.95;;
11016;SDS011;54687;50.800;6.772;2022-07-05T05:36:10;8.73;;;4.80;;
11016;SDS011;54687;50.800;6.772;2022-07-05T05:38:38;5.70;;;5.00;;
11016;SDS011;54687;50.800;6.772;2022-07-05T05:41:05;6.25;;;4.38;;
11016;SDS011;54687;50.800;6.772;2022-07-05T05:43:31;5.28;;;4.78;;
11016;SDS011;54687;50.800;6.772;2022-07-05T05:45:58;5.57;;;4.63;;
11016;SDS011;54687;50.800;6.772;2022-07-05T05:48:24;7.60;;;4.45;;
11016;SDS011;54687;50.800;6.772;2022-07-05T05:50:51;10.13;;;4.47;;
11016;SDS011;54687;50.800;6.772;2022-07-05T05:53:18;6.95;;;4.80;;
11016;SDS011;54687;50.800;6.772;2022-07-05T05:55:45;7.60;;;4.15;;
11016;SDS011;54687;50.800;6.772;2022-07-05T05:58:12;6.05;;;4.60;;
11016;SDS011;54687;50.800;6.772;2022-07-05T06:00:39;6.95;;;4.22;;
11016;SDS011;54687;50.800;6.772;2022-07-05T06:03:05;7.72;;;4.38;;
11016;SDS011;54687;50.800;6.772;2022-07-05T06:05:32;5.90;;;5.30;;
11016;SDS011;54687;50.800;6.772;2022-07-05T06:08:01;8.70;;;5.38;;
11016;SDS011;54687;50.800;6.772;2022-07-05T06:10:28;7.85;;;4.93;;
11016;SDS011;54687;50.800;6.772;2022-07-05T06:12:57;5.72;;;4.15;;
11016;SDS011;54687;50.800;6.772;2022-07-05T06:15:24;6.85;;;4.20;;
11016;SDS011;54687;50.800;6.772;2022-07-05T06:17:56;5.85;;;4.20;;
11016;SDS011;54687;50.800;6.772;2022-07-05T06:22:52;6.43;;;4.20;;
11016;SDS011;54687;50.800;6.772;2022-07-05T06:25:19;5.50;;;3.60;;
11016;SDS011;54687;50.800;6.772;2022-07-05T06:27:46;9.55;;;4.78;;
11016;SDS011;54687;50.800;6.772;2022-07-05T06:30:15;6.22;;;3.58;;
11016;SDS011;54687;50.800;6.772;2022-07-05T06:32:42;5.10;;;3.40;;
11016;SDS011;54687;50.800;6.772;2022-07-05T06:35:08;6.90;;;3.40;;
11016;SDS011;54687;50.800;6.772;2022-07-05T06:37:41;6.22;;;3.80;;
11016;SDS011;54687;50.800;6.772;2022-07-05T06:40:09;5.45;;;3.97;;
11016;SDS011;54687;50.800;6.772;2022-07-05T06:42:36;6.28;;;4.00;;
11016;SDS011;54687;50.800;6.772;2022-07-05T06:45:03;5.70;;;3.63;;
11016;SDS011;54687;50.800;6.772;2022-07-05T06:47:32;7.20;;;3.85;;
11016;SDS011;54687;50.800;6.772;2022-07-05T06:49:58;6.68;;;3.70;;
11016;SDS011;54687;50.800;6.772;2022-07-05T06:52:25;4.18;;;3.65;;
11016;SDS011;54687;50.800;6.772;2022-07-05T06:54:51;6.63;;;3.83;;
11016;SDS011;54687;50.800;6.772;2022-07-05T06:57:18;4.53;;;3.60;;
11016;SDS011;54687;50.800;6.772;2022-07-05T06:59:45;7.82;;;4.60;;
11016;SDS011;54687;50.800;6.772;2022-07-05T07:02:11;4.25;;;3.53;;
11016;SDS011;54687;50.800;6.772;2022-07-05T07:04:39;7.75;;;3.80;;
11016;SDS011;54687;50.800;6.772;2022-07-05T07:07:05;6.22;;;3.95;;
11016;SDS011;54687;50.800;6.772;2022-07-05T07:09:55;4.90;;;3.85;;
11016;SDS011;54687;50.800;6.772;2022-07-05T07:12:21;6.28;;;4.13;;
11016;SDS011;54687;50.800;6.772;2022-07-05T07:14:47;14.27;;;4.53;;
11016;SDS011;54687;50.800;6.772;2022-07-05T07:17:13;9.23;;;4.05;;
11016;SDS011;54687;50.800;6.772;2022-07-05T07:19:41;7.00;;;3.90;;
11016;SDS011;54687;50.800;6.772;2022-07-05T07:22:08;7.47;;;4.03;;
11016;SDS011;54687;50.800;6.772;2022-07-05T07:24:34;7.28;;;3.50;;
11016;SDS011;54687;50.800;6.772;2022-07-05T07:27:01;5.00;;;3.90;;
11016;SDS011;54687;50.800;6.772;2022-07-05T07:29:33;5.97;;;4.25;;
11016;SDS011;54687;50.800;6.772;2022-07-05T07:32:00;5.10;;;3.92;;
11016;SDS011;54687;50.800;6.772;2022-07-05T07:34:27;6.38;;;4.05;;
11016;SDS011;54687;50.800;6.772;2022-07-05T07:36:56;4.45;;;3.45;;
11016;SDS011;54687;50.800;6.772;2022-07-05T07:39:22;4.63;;;4.22;;
11016;SDS011;54687;50.800;6.772;2022-07-05T07:42:14;6.03;;;4.00;;
11016;SDS011;54687;50.800;6.772;2022-07-05T07:44:41;11.13;;;3.95;;
11016;SDS011;54687;50.800;6.772;2022-07-05T07:47:08;7.78;;;3.95;;
11016;SDS011;54687;50.800;6.772;2022-07-05T07:49:35;6.82;;;4.15;;
11016;SDS011;54687;50.800;6.772;2022-07-05T07:52:04;4.28;;;3.40;;
11016;SDS011;54687;50.800;6.772;2022-07-05T07:54:31;5.63;;;4.57;;
11016;SDS011;54687;50.800;6.772;2022-07-05T07:56:57;5.00;;;4.00;;
11016;SDS011;54687;50.800;6.772;2022-07-05T07:59:24;8.02;;;3.85;;
11016;SDS011;54687;50.800;6.772;2022-07-05T08:01:54;6.28;;;3.85;;
11016;SDS011;54687;50.800;6.772;2022-07-05T08:04:21;5.32;;;4.30;;
11016;SDS011;54687;50.800;6.772;2022-07-05T08:06:48;6.43;;;4.03;;
11016;SDS011;54687;50.800;6.772;2022-07-05T08:09:16;8.40;;;3.47;;
11016;SDS011;54687;50.800;6.772;2022-07-05T08:11:44;4.40;;;3.95;;
11016;SDS011;54687;50.800;6.772;2022-07-05T08:14:11;4.43;;;3.70;;
11016;SDS011;54687;50.800;6.772;2022-07-05T08:16:38;8.02;;;3.33;;
11016;SDS011;54687;50.800;6.772;2022-07-05T08:19:05;5.25;;;3.20;;
11016;SDS011;54687;50.800;6.772;2022-07-05T08:21:49;6.05;;;3.38;;
11016;SDS011;54687;50.800;6.772;2022-07-05T08:24:18;6.38;;;3.78;;
11016;SDS011;54687;50.800;6.772;2022-07-05T08:26:44;3.95;;;3.55;;
11016;SDS011;54687;50.800;6.772;2022-07-05T08:29:12;7.45;;;3.97;;
11016;SDS011;54687;50.800;6.772;2022-07-05T08:31:39;7.07;;;4.05;;
11016;SDS011;54687;50.800;6.772;2022-07-05T08:34:07;4.47;;;3.00;;
11016;SDS011;54687;50.800;6.772;2022-07-05T08:36:34;6.10;;;4.75;;
11016;SDS011;54687;50.800;6.772;2022-07-05T08:39:01;6.07;;;3.35;;
11016;SDS011;54687;50.800;6.772;2022-07-05T08:41:29;6.07;;;3.08;;
11016;SDS011;54687;50.800;6.772;2022-07-05T08:43:57;5.45;;;3.42;;
11016;SDS011;54687;50.800;6.772;2022-07-05T08:46:24;5.78;;;3.95;;
11016;SDS011;54687;50.800;6.772;2022-07-05T08:48:52;4.07;;;3.33;;
11016;SDS011;54687;50.800;6.772;2022-07-05T08:51:21;5.32;;;3.33;;
11016;SDS011;54687;50.800;6.772;2022-07-05T08:53:50;3.72;;;3.42;;
11016;SDS011;54687;50.800;6.772;2022-07-05T08:56:17;5.03;;;3.33;;
11016;SDS011;54687;50.800;6.772;2022-07-05T08:58:45;10.25;;;3.20;;
11016;SDS011;54687;50.800;6.772;2022-07-05T09:01:12;6.35;;;3.33;;
11016;SDS011;54687;50.800;6.772;2022-07-05T09:03:42;5.60;;;3.17;;
11016;SDS011;54687;50.800;6.772;2022-07-05T09:06:09;8.60;;;4.88;;
11016;SDS011;54687;50.800;6.772;2022-07-05T09:08:37;4.95;;;3.75;;
11016;SDS011;54687;50.800;6.772;2022-07-05T09:11:05;6.50;;;4.22;;
11016;SDS011;54687;50.800;6.772;2022-07-05T09:13:33;3.65;;;3.33;;
11016;SDS011;54687;50.800;6.772;2022-07-05T09:16:02;4.05;;;3.65;;
11016;SDS011;54687;50.800;6.772;2022-07-05T09:18:38;3.50;;;3.20;;
11016;SDS011;54687;50.800;6.772;2022-07-05T09:21:11;4.22;;;2.65;;
11016;SDS011;54687;50.800;6.772;2022-07-05T09:23:38;3.40;;;2.78;;
11016;SDS011;54687;50.800;6.772;2022-07-05T09:26:05;6.60;;;5.68;;
11016;SDS011;54687;50.800;6.772;2022-07-05T09:28:32;4.68;;;3.80;;
11016;SDS011;54687;50.800;6.772;2022-07-05T09:30:59;11.07;;;9.32;;
11016;SDS011;54687;50.800;6.772;2022-07-05T09:33:28;6.32;;;3.78;;
11016;SDS011;54687;50.800;6.772;2022-07-05T09:35:55;3.10;;;2.67;;
11016;SDS011;54687;50.800;6.772;2022-07-05T09:38:23;4.13;;;2.90;;
11016;SDS011;54687;50.800;6.772;2022-07-05T09:40:50;5.57;;;4.03;;
11016;SDS011;54687;50.800;6.772;2022-07-05T09:43:18;5.78;;;3.58;;
11016;SDS011;54687;50.800;6.772;2022-07-05T09:45:58;5.00;;;3.00;;
11016;SDS011;54687;50.800;6.772;2022-07-05T09:48:26;4.13;;;2.95;;
11016;SDS011;54687;50.800;6.772;2022-07-05T09:50:55;3.85;;;3.03;;
11016;SDS011;54687;50.800;6.772;2022-07-05T09:53:43;8.82;;;7.60;;
11016;SDS011;54687;50.800;6.772;2022-07-05T09:56:10;9.00;;;5.40;;
11016;SDS011;54687;50.800;6.772;2022-07-05T09:58:37;3.10;;;2.80;;
11016;SDS011;54687;50.800;6.772;2022-07-05T10:01:05;2.95;;;2.60;;
11016;SDS011;54687;50.800;6.772;2022-07-05T10:03:52;3.03;;;2.67;;
11016;SDS011;54687;50.800;6.772;2022-07-05T10:06:21;11.73;;;2.90;;
11016;SDS011;54687;50.800;6.772;2022-07-05T10:08:48;3.92;;;3.35;;
11016;SDS011;54687;50.800;6.772;2022-07-05T10:11:16;3.63;;;2.35;;
11016;SDS011;54687;50.800;6.772;2022-07-05T10:13:43;8.60;;;2.80;;
11016;SDS011;54687;50.800;6.772;2022-07-05T10:16:10;6.68;;;3.35;;
11016;SDS011;54687;50.800;6.772;2022-07-05T10:18:37;3.97;;;2.65;;
11016;SDS011;54687;50.800;6.772;2022-07-05T10:21:04;7.07;;;2.75;;
11016;SDS011;54687;50.800;6.772;2022-07-05T10:23:33;4.50;;;2.60;;
11016;SDS011;54687;50.800;6.772;2022-07-05T10:26:00;4.93;;;2.65;;
11016;SDS011;54687;50.800;6.772;2022-07-05T10:28:27;3.30;;;2.40;;
11016;SDS011;54687;50.800;6.772;2022-07-05T10:30:55;4.07;;;2.95;;
11016;SDS011;54687;50.800;6.772;2022-07-05T10:33:22;5.78;;;3.00;;
11016;SDS011;54687;50.800;6.772;2022-07-05T10:35:52;2.90;;;2.10;;
11016;SDS011;54687;50.800;6.772;2022-07-05T10:38:19;5.05;;;3.08;;
11016;SDS011;54687;50.800;6.772;2022-07-05T10:40:50;3.67;;;3.35;;
11016;SDS011;54687;50.800;6.772;2022-07-05T10:43:18;4.43;;;2.88;;
11016;SDS011;54687;50.800;6.772;2022-07-05T10:45:48;6.78;;;2.80;;
11016;SDS011;54687;50.800;6.772;2022-07-05T10:48:16;3.78;;;2.70;;
11016;SDS011;54687;50.800;6.772;2022-07-05T10:50:44;6.00;;;2.92;;
11016;SDS011;54687;50.800;6.772;2022-07-05T10:53:11;3.75;;;3.10;;
11016;SDS011;54687;50.800;6.772;2022-07-05T10:55:50;3.03;;;2.72;;
11016;SDS011;54687;50.800;6.772;2022-07-05T10:58:18;3.63;;;2.58;;
11016;SDS011;54687;50.800;6.772;2022-07-05T11:00:45;3.53;;;2.22;;
11016;SDS011;54687;50.800;6.772;2022-07-05T11:03:32;4.68;;;2.10;;
11016;SDS011;54687;50.800;6.772;2022-07-05T11:06:00;7.80;;;3.05;;
11016;SDS011;54687;50.800;6.772;2022-07-05T11:08:27;2.38;;;2.10;;
11016;SDS011;54687;50.800;6.772;2022-07-05T11:11:09;8.65;;;5.63;;
11016;SDS011;54687;50.800;6.772;2022-07-05T11:13:37;4.88;;;4.07;;
11016;SDS011;54687;50.800;6.772;2022-07-05T11:16:19;7.28;;;3.40;;
11016;SDS011;54687;50.800;6.772;2022-07-05T11:18:46;3.63;;;2.97;;
11016;SDS011;54687;50.800;6.772;2022-07-05T11:21:16;3.28;;;2.70;;
11016;SDS011;54687;50.800;6.772;2022-07-05T11:23:44;3.25;;;2.30;;
11016;SDS011;54687;50.800;6.772;2022-07-05T11:26:12;5.00;;;3.58;;
11016;SDS011;54687;50.800;6.772;2022-07-05T11:28:42;8.10;;;6.15;;
11016;SDS011;54687;50.800;6.772;2022-07-05T11:31:09;4.97;;;2.65;;
11016;SDS011;54687;50.800;6.772;2022-07-05T11:33:38;7.40;;;3.90;;
11016;SDS011;54687;50.800;6.772;2022-07-05T11:36:05;4.00;;;2.67;;
11016;SDS011;54687;50.800;6.772;2022-07-05T11:38:33;4.75;;;2.92;;
11016;SDS011;54687;50.800;6.772;2022-07-05T11:41:14;5.10;;;2.28;;
11016;SDS011;54687;50.800;6.772;2022-07-05T11:43:41;5.45;;;2.85;;
11016;SDS011;54687;50.800;6.772;2022-07-05T11:46:08;3.50;;;2.88;;
11016;SDS011;54687;50.800;6.772;2022-07-05T11:48:35;3.67;;;3.00;;
11016;SDS011;54687;50.800;6.772;2022-07-05T11:51:13;6.90;;;2.67;;
11016;SDS011;54687;50.800;6.772;2022-07-05T11:53:39;5.18;;;2.42;;
11016;SDS011;54687;50.800;6.772;2022-07-05T11:56:06;3.08;;;2.47;;
11016;SDS011;54687;50.800;6.772;2022-07-05T11:58:35;5.78;;;3.15;;
11016;SDS011;54687;50.800;6.772;2022-07-05T12:01:02;3.30;;;2.33;;
11016;SDS011;54687;50.800;6.772;2022-07-05T12:03:31;4.85;;;2.10;;
11016;SDS011;54687;50.800;6.772;2022-07-05T12:05:58;5.55;;;2.20;;
11016;SDS011;54687;50.800;6.772;2022-07-05T12:08:25;4.93;;;2.13;;
11016;SDS011;54687;50.800;6.772;2022-07-05T12:10:51;5.93;;;3.15;;
11016;SDS011;54687;50.800;6.772;2022-07-05T12:13:44;2.97;;;2.63;;
11016;SDS011;54687;50.800;6.772;2022-07-05T12:16:11;2.10;;;2.00;;
11016;SDS011;54687;50.800;6.772;2022-07-05T12:18:48;6.50;;;3.00;;
11016;SDS011;54687;50.800;6.772;2022-07-05T12:21:15;4.22;;;2.17;;
11016;SDS011;54687;50.800;6.772;2022-07-05T12:23:42;4.28;;;2.28;;
11016;SDS011;54687;50.800;6.772;2022-07-05T12:26:10;2.53;;;2.00;;
11016;SDS011;54687;50.800;6.772;2022-07-05T12:28:37;3.15;;;2.10;;
11016;SDS011;54687;50.800;6.772;2022-07-05T12:31:16;4.47;;;2.20;;
11016;SDS011;54687;50.800;6.772;2022-07-05T12:33:44;5.45;;;1.98;;
11016;SDS011;54687;50.800;6.772;2022-07-05T12:36:11;7.25;;;3.17;;
11016;SDS011;54687;50.800;6.772;2022-07-05T12:38:38;2.28;;;2.00;;
11016;SDS011;54687;50.800;6.772;2022-07-05T12:41:05;2.70;;;1.88;;
11016;SDS011;54687;50.800;6.772;2022-07-05T12:43:32;1.80;;;1.63;;
11016;SDS011;54687;50.800;6.772;2022-07-05T12:45:59;2.13;;;1.92;;
11016;SDS011;54687;50.800;6.772;2022-07-05T12:48:31;3.10;;;1.60;;
11016;SDS011;54687;50.800;6.772;2022-07-05T12:50:59;6.05;;;2.40;;
11016;SDS011;54687;50.800;6.772;2022-07-05T12:53:26;2.78;;;2.03;;
11016;SDS011;54687;50.800;6.772;2022-07-05T12:56:11;3.35;;;2.20;;
11016;SDS011;54687;50.800;6.772;2022-07-05T12:58:55;7.50;;;2.42;;
11016;SDS011;54687;50.800;6.772;2022-07-05T13:01:24;5.60;;;1.90;;
11016;SDS011;54687;50.800;6.772;2022-07-05T13:04:06;3.97;;;2.10;;
11016;SDS011;54687;50.800;6.772;2022-07-05T13:06:43;3.47;;;2.20;;
11016;SDS011;54687;50.800;6.772;2022-07-05T13:09:11;2.22;;;1.70;;
11016;SDS011;54687;50.800;6.772;2022-07-05T13:11:38;2.25;;;1.65;;
11016;SDS011;54687;50.800;6.772;2022-07-05T13:14:05;2.33;;;1.67;;
11016;SDS011;54687;50.800;6.772;2022-07-05T13:16:32;1.95;;;1.80;;
11016;SDS011;54687;50.800;6.772;2022-07-05T13:19:07;4.45;;;2.22;;
11016;SDS011;54687;50.800;6.772;2022-07-05T13:21:33;3.03;;;1.85;;
11016;SDS011;54687;50.800;6.772;2022-07-05T13:24:00;2.33;;;1.80;;
11016;SDS011;54687;50.800;6.772;2022-07-05T13:26:27;3.30;;;1.98;;
11016;SDS011;54687;50.800;6.772;2022-07-05T13:28:53;2.65;;;1.80;;
11016;SDS011;54687;50.800;6.772;2022-07-05T13:31:20;2.70;;;2.42;;
11016;SDS011;54687;50.800;6.772;2022-07-05T13:33:46;2.95;;;1.70;;
11016;SDS011;54687;50.800;6.772;2022-07-05T13:36:14;2.33;;;2.10;;
11016;SDS011;54687;50.800;6.772;2022-07-05T13:38:41;3.90;;;2.25;;
11016;SDS011;54687;50.800;6.772;2022-07-05T13:41:07;3.85;;;2.00;;
11016;SDS011;54687;50.800;6.772;2022-07-05T13:43:34;4.72;;;1.88;;
11016;SDS011;54687;50.800;6.772;2022-07-05T13:46:00;7.95;;;2.28;;
11016;SDS011;54687;50.800;6.772;2022-07-05T13:48:26;5.03;;;2.17;;
11016;SDS011;54687;50.800;6.772;2022-07-05T13:50:53;2.58;;;1.90;;
11016;SDS011;54687;50.800;6.772;2022-07-05T13:53:21;3.58;;;2.40;;
11016;SDS011;54687;50.800;6.772;2022-07-05T13:55:47;2.53;;;2.05;;
11016;SDS011;54687;50.800;6.772;2022-07-05T13:58:13;2.88;;;1.60;;
11016;SDS011;54687;50.800;6.772;2022-07-05T14:00:40;4.07;;;2.00;;
11016;SDS011;54687;50.800;6.772;2022-07-05T14:03:07;2.13;;;1.85;;
11016;SDS011;54687;50.800;6.772;2022-07-05T14:05:33;3.95;;;2.10;;
11016;SDS011;54687;50.800;6.772;2022-07-05T14:08:00;3.55;;;1.80;;
11016;SDS011;54687;50.800;6.772;2022-07-05T14:10:28;3.75;;;1.80;;
11016;SDS011;54687;50.800;6.772;2022-07-05T14:12:54;2.88;;;1.65;;
11016;SDS011;54687;50.800;6.772;2022-07-05T14:15:21;7.47;;;2.25;;
11016;SDS011;54687;50.800;6.772;2022-07-05T14:17:47;3.30;;;2.03;;
11016;SDS011;54687;50.800;6.772;2022-07-05T14:20:13;2.35;;;1.77;;
11016;SDS011;54687;50.800;6.772;2022-07-05T14:22:40;3.67;;;2.30;;
11016;SDS011;54687;50.800;6.772;2022-07-05T14:25:06;3.03;;;2.00;;
11016;SDS011;54687;50.800;6.772;2022-07-05T14:27:34;3.10;;;2.10;;
11016;SDS011;54687;50.800;6.772;2022-07-05T14:30:02;3.55;;;2.30;;
11016;SDS011;54687;50.800;6.772;2022-07-05T14:32:29;12.20;;;10.95;;
11016;SDS011;54687;50.800;6.772;2022-07-05T14:34:55;6.95;;;2.63;;
11016;SDS011;54687;50.800;6.772;2022-07-05T14:37:21;4.07;;;3.22;;
11016;SDS011;54687;50.800;6.772;2022-07-05T14:39:48;9.43;;;2.70;;
11016;SDS011;54687;50.800;6.772;2022-07-05T14:42:15;3.47;;;2.10;;
11016;SDS011;54687;50.800;6.772;2022-07-05T14:44:43;4.50;;;1.90;;
11016;SDS011;54687;50.800;6.772;2022-07-05T14:47:10;3.92;;;2.10;;
11016;SDS011;54687;50.800;6.772;2022-07-05T14:49:36;2.55;;;1.63;;
11016;SDS011;54687;50.800;6.772;2022-07-05T14:52:04;4.97;;;2.25;;
11016;SDS011;54687;50.800;6.772;2022-07-05T14:54:30;2.78;;;2.28;;